Eagle Bay, New York
Current Conditions -  °F | °C
As of 1:53 AM on Friday 28 Nov 2014 (Local Time) from KRME Reporting Station
Overcast Overcast  
Wind Chill: 20°   Ceiling: 3200
Heat Index: 27°   Visibility: 10mi
Dew Point: 23°   Wind: 6mph
Humidity: 85%   Direction: 260°W
Pressure: 30.07"   Gusts: NA
Location:  43.7°N, 74.99°W
Report Text: KRME 280653Z AUTO 26005KT 10SM FEW022 OVC032 M03/M05 A3007 RMK AO2 SLP188 T10281050
Loading
Personal Weather Stations






























Interactive Weather Map New forecast layout! Learn more

10-Day Weather Forecast

Advertisements
Track Severe Weather on mobile